• Join FlightAware (Why Join?)
  • Login
  • US Flag 
10:49AM EDT


 

Airport Tracker/Info


-or-


 

Live Flight TrackerFlight Track Log ✈ USC392 ✈ 16-May-2013 ✈ KBHM - KPDK

Flight Track Log - Related Links

Times and Time Zones

All times are in EDT time to prevent confusion due to time zone crossing. See the USC392 flight status page for this flight to view local times or setup timezone preferences in your user account.

Time Position Orientation Groundspeed Altitude Reporting Facility
EDT Latitude Longitude Course Direction KTS MPH feet Rate Location/Type
09:17PM 33.5508 -86.7806 238° Southwest 88 101 1,300  Level Atlanta Center
09:17PM 33.5444 -86.7928 238° Southwest 95 109 1,800 1,080 Climbing Atlanta Center
09:18PM 33.5478 -86.8231 278° West 127 146 2,900 960 Climbing Atlanta Center
09:19PM 33.5856 -86.8142 11° North 151 174 3,800 900 Climbing Atlanta Center
09:20PM 33.6156 -86.7803 43° Northeast 148 170 4,800 540 Climbing Atlanta Center
09:21PM 33.6478 -86.7414 45° Northeast 174 200 5,000 300 Climbing Atlanta Center
09:22PM 33.6842 -86.6975 45° Northeast 182 209 5,500 540 Climbing Atlanta Center
09:23PM 33.7161 -86.6636 41° Northeast 159 183 6,200 720 Climbing Atlanta Center
09:24PM 33.7461 -86.6244 47° Northeast 154 177 7,000 720 Climbing Atlanta Center
09:25PM 33.7619 -86.5775 68° East 157 181 7,700 720 Climbing Atlanta Center
09:26PM 33.7753 -86.5303 71° East 148 170 8,500 600 Climbing Atlanta Center
09:27PM 33.7911 -86.4758 71° East 146 168 9,000 240 Climbing Atlanta Center
09:28PM 33.8044 -86.4264 72° East 174 200 9,000  Level Atlanta Center
09:29PM 33.8203 -86.3667 72° East 179 206 9,000  Level Atlanta Center
09:30PM 33.8358 -86.3097 72° East 184 212 9,000  Level Atlanta Center
09:31PM 33.8517 -86.2550 71° East 184 212 9,000  Level Atlanta Center
09:32PM 33.8694 -86.1953 70° East 184 212 9,000  Level Atlanta Center
09:33PM 33.8828 -86.1408 74° East 178 205 9,000  Level Atlanta Center
09:34PM 33.9006 -86.0836 69° East 178 205 9,000  Level Atlanta Center
09:35PM 33.9181 -86.0264 70° East 178 205 9,000  Level Atlanta Center
09:36PM 33.9336 -85.9667 73° East 178 205 9,000  Level Atlanta Center
09:37PM 33.9469 -85.9144 73° East 178 205 9,000  Level Atlanta Center
09:38PM 33.9625 -85.8572 72° East 178 205 9,000  Level Atlanta Center
09:39PM 33.9758 -85.7997 74° East 178 205 9,000  Level Atlanta Center
09:40PM 33.9725 -85.7422 94° East 173 199 9,000 -240 Level Atlanta Center
09:41PM 33.9711 -85.6794 92° East 179 206 8,600 -480 Descending Atlanta Center
09:42PM 33.9719 -85.6144 89° East 185 213 8,100 -600 Descending Atlanta Center
09:43PM 33.9708 -85.5492 91° East 185 213 7,500 420 Descending Atlanta Center
09:44PM 33.9653 -85.4889 96° East 185 213 9,000 -540 Climbing Atlanta Center
09:45PM 33.9658 -85.4264 89° East 191 220 6,500 -1,500 Descending Atlanta Center
09:46PM 33.9644 -85.3639 92° East 191 220 6,000 -600 Descending Atlanta Center
09:47PM 33.9631 -85.3036 92° East 191 220 5,400 -420 Descending Atlanta Center
09:48PM 33.9636 -85.2411 89° East 191 220 5,200 1,800 Descending Atlanta Center
09:49PM 33.9644 -85.1783 89° East 191 220 9,000 -120 Climbing Atlanta Center
09:50PM 33.9606 -85.1258 95° East 165 190 5,000 -2,040 Descending Atlanta Center
09:51PM 33.9592 -85.0681 92° East 165 190 5,000  Level Atlanta Center
09:52PM 33.9575 -85.0081 92° East 160 184 5,000  Level Atlanta Center
09:53PM 33.9600 -84.9506 87° East 160 184 5,000  Level Atlanta Center
09:54PM 33.9728 -84.8956 74° East 160 184 5,000  Level Atlanta Center
09:55PM 33.9794 -84.8381 82° East 166 191 5,000  Level Atlanta Center
09:57PM 33.9833 -84.7333 87° East 171 197 5,000  Level Atlanta TRACON
09:58PM 33.9833 -84.6667 90° East 173 199 5,000  Level Atlanta TRACON
09:59PM 33.9833 -84.6167 90° East 174 200 5,000  Level Atlanta TRACON
10:00PM 34.0000 -84.5667 68° East 172 198 5,000  Level Atlanta TRACON
10:01PM 34.0000 -84.5167 90° East 173 199 5,000 -240 Level Atlanta TRACON
10:02PM 34.0000 -84.4500 90° East 177 204 4,600 -480 Descending Atlanta TRACON
10:03PM 34.0000 -84.3833 90° East 189 217 4,100 -480 Descending Atlanta TRACON
10:04PM 34.0000 -84.3333 90° East 185 213 3,700 -600 Descending Atlanta TRACON
10:05PM 34.0000 -84.2667 90° East 189 217 3,000 -600 Descending Atlanta TRACON
10:06PM 33.9667 -84.2667 180° South 151 174 2,500 -600 Descending Atlanta TRACON
10:07PM 33.9167 -84.2833 195° South 142 163 1,800 -720 Descending Atlanta TRACON
10:09PM 33.8756 -84.3020 153° Southeast  Level Estimated
10:16PM 33.8756 -84.3020 153° Southeast  Level Estimated
10:17PM 33.8756 -84.3020 153° Southeast  Level Estimated